South Beloit, IL (61080)

2:30 AM CDT on August 28, 2016 (GMT -0500)
Sleepy Hollow Subdivision | | Change Station

Elev 810 ft 42.44 °N, 88.96 °W | Updated 11 seconds ago

Mist
Mist
62.2 °F
Feels Like 62.2 °F
N
0.0
Wind Variable Wind from NNE
Gusts 0.0 mph

Today
High -- | Low -- °F
--% Chance of Precip.
Yesterday
High -- | Low -- °F
Precip. -- in
Pressure 30.11 in
Visibility 1.0 miles
Clouds
Dew Point 55 °F
Humidity 78%
Rainfall 0.00 in
Snow Depth Not available.
6:17 AM 7:35 PM
Waning Crescent, 18% visible
METAR KJVL 280710Z AUTO 00000KT 1SM BR VV007 18/18 A3011 RMK AO2
Pressure 30.11 in
Visibility 1.0 miles
Clouds
Dew Point 55 °F
Humidity 78%
Rainfall 0.00 in
Snow Depth Not available.
6:17 AM 7:35 PM
Waning Crescent, 18% visible
METAR KJVL 280710Z AUTO 00000KT 1SM BR VV007 18/18 A3011 RMK AO2

10-Day Weather Forecast

Almanac

Astronomy

Aug. 28, 2016 Rise Set
Actual Time
Civil Twilight
Nautical Twilight
Astronomical Twilight
Moon
Length of Visible Light
Length of Day
Tomorrow will be .
, % of the Moon is Illuminated

Today's Extremes

State Highs State Lows

Community

WunderPhotos

Upload Photos

1,935,533 photos uploaded!

WunderBlog® & News

Nearby

Air Quality

  Air Quality AQ Index Pollutant
Not available.

Snow Depth

Station Depth Elevation

Earthquake Activity

City Distance Mag. Time & Date
Minimum magnitude displayed is 2.5.

Coastal Water Temperatures

Place Temperature

Stations

Nearby Weather Stations

Station Location Temp. Windchill Dew Point Humidity Wind Precip. Elev Updated Type
                   

Watches & Warnings

There are currently no watches in effect.